地図

経路データ

SID SEASON NUMBER BASIN SUBBASIN NAME ISO_TIME NATURE LAT LON WMO_WIND WMO_PRES WMO_AGENCY TRACK_TYPE DIST2LAND LANDFALL IFLAG USA_AGENCY USA_ATCF_ID USA_LAT USA_LON USA_RECORD USA_STATUS USA_WIND USA_PRES USA_SSHS USA_R34_NE USA_R34_SE USA_R34_SW USA_R34_NW USA_R50_NE USA_R50_SE USA_R50_SW USA_R50_NW USA_R64_NE USA_R64_SE USA_R64_SW USA_R64_NW USA_POCI USA_ROCI USA_RMW USA_EYE TOKYO_LAT TOKYO_LON TOKYO_GRADE TOKYO_WIND TOKYO_PRES TOKYO_R50_DIR TOKYO_R50_LONG TOKYO_R50_SHORT TOKYO_R30_DIR TOKYO_R30_LONG TOKYO_R30_SHORT TOKYO_LAND CMA_LAT CMA_LON CMA_CAT CMA_WIND CMA_PRES HKO_LAT HKO_LON HKO_CAT HKO_WIND HKO_PRES NEWDELHI_LAT NEWDELHI_LON NEWDELHI_GRADE NEWDELHI_WIND NEWDELHI_PRES NEWDELHI_CI NEWDELHI_DP NEWDELHI_POCI REUNION_LAT REUNION_LON REUNION_TYPE REUNION_WIND REUNION_PRES REUNION_TNUM REUNION_CI REUNION_RMW REUNION_R34_NE REUNION_R34_SE REUNION_R34_SW REUNION_R34_NW REUNION_R50_NE REUNION_R50_SE REUNION_R50_SW REUNION_R50_NW REUNION_R64_NE REUNION_R64_SE REUNION_R64_SW REUNION_R64_NW BOM_LAT BOM_LON BOM_TYPE BOM_WIND BOM_PRES BOM_TNUM BOM_CI BOM_RMW BOM_R34_NE BOM_R34_SE BOM_R34_SW BOM_R34_NW BOM_R50_NE BOM_R50_SE BOM_R50_SW BOM_R50_NW BOM_R64_NE BOM_R64_SE BOM_R64_SW BOM_R64_NW BOM_ROCI BOM_POCI BOM_EYE BOM_POS_METHOD BOM_PRES_METHOD NADI_LAT NADI_LON NADI_CAT NADI_WIND NADI_PRES WELLINGTON_LAT WELLINGTON_LON WELLINGTON_WIND WELLINGTON_PRES DS824_LAT DS824_LON DS824_STAGE DS824_WIND DS824_PRES TD9636_LAT TD9636_LON TD9636_STAGE TD9636_WIND TD9636_PRES TD9635_LAT TD9635_LON TD9635_WIND TD9635_PRES TD9635_ROCI NEUMANN_LAT NEUMANN_LON NEUMANN_CLASS NEUMANN_WIND NEUMANN_PRES MLC_LAT MLC_LON MLC_CLASS MLC_WIND MLC_PRES USA_GUST BOM_GUST BOM_GUST_PER REUNION_GUST REUNION_GUST_PER USA_SEAHGT USA_SEARAD_NE USA_SEARAD_SE USA_SEARAD_SW USA_SEARAD_NW STORM_SPEED STORM_DIR
1935012S15068 1935 1 SI MM NOT_NAMED 1935-01-12 00:00:00 TS -14.6000 68.3000 main 1281 1233 _________O____ -1 -14.6000 68.3000 TC 35 9 238
1935012S15068 1935 1 SI MM NOT_NAMED 1935-01-12 03:00:00 TS -14.8427 67.8927 main 1233 1163 _________P____ -1 -14.8427 67.8927 TC 35 11 225
1935012S15068 1935 1 SI MM NOT_NAMED 1935-01-12 06:00:00 TS -15.4000 67.4600 reunion main 1163 1119 _____O___OO___ -1 -17.1000 66.5000 99 9.90000 -15.1000 67.5000 TC 35 -14.6000 68.3000 2 11 221
1935012S15068 1935 1 SI MM NOT_NAMED 1935-01-12 09:00:00 TS -15.6689 67.1537 main 1119 1080 _____P___PP___ -1 -17.0177 66.4482 99 -15.3849 67.1349 TC 35 -14.8881 67.8966 2 8 227
1935012S15068 1935 1 SI MM NOT_NAMED 1935-01-12 12:00:00 TS -15.9174 66.8899 main 1080 1050 _____P___OP___ -1 -16.9540 66.3955 99 -15.7000 66.8000 TC 35 -15.1706 67.5041 2 7 226
1935012S15068 1935 1 SI MM NOT_NAMED 1935-01-12 15:00:00 TS -16.1376 66.6509 main 1050 1012 _____P___PP___ -1 -16.9274 66.3409 99 -16.0425 66.4775 TC 35 -15.4429 67.1345 2 6 226
1935012S15068 1935 1 SI MM NOT_NAMED 1935-01-12 18:00:00 TS -16.3521 66.4277 main 1006 992 _____P___OO___ -1 -16.9564 66.2832 99 -16.4000 66.2000 TC 35 -15.7000 66.8000 2 6 223
1935012S15068 1935 1 SI MM NOT_NAMED 1935-01-12 21:00:00 TS -16.5630 66.2433 main 977 958 _____P___PP___ -1 -17.0596 66.2215 99 -16.6824 65.9995 TC 35 -15.9470 66.5089 2 6 214
1935012S15068 1935 1 SI MM NOT_NAMED 1935-01-13 00:00:00 TS -16.8609 66.0693 main 953 916 _____P___OP___ -1 -17.2555 66.1545 99 -17.1000 65.8000 TC 35 -16.2274 66.2534 2 8 205
1935012S15068 1935 1 SI MM NOT_NAMED 1935-01-13 03:00:00 TS -17.3248 65.8651 main 916 872 _____P___PP___ -1 -17.5627 66.0811 99 -17.8177 65.4929 TC 35 -16.5940 66.0212 2 11 200
1935012S15068 1935 1 SI MM NOT_NAMED 1935-01-13 06:00:00 TS -17.9333 65.6667 reunion main 872 829 _____O___OO___ -1 -18.0000 66.0000 99 9.90000 -18.7000 65.2000 TC 35 -17.1000 65.8000 2 14 195
1935012S15068 1935 1 SI MM NOT_NAMED 1935-01-13 09:00:00 TS -18.6549 65.4764 main 826 790 _____P___PP___ -1 -18.5772 65.9110 99 -19.5850 65.0050 TC 35 -17.8025 65.5132 2 16 192
1935012S15068 1935 1 SI MM NOT_NAMED 1935-01-13 12:00:00 TS -19.4703 65.3198 main 789 771 _____P___OP___ -1 -19.2679 65.8183 99 -20.5000 64.9000 TC 35 -18.6431 65.2411 2 17 189
1935012S15068 1935 1 SI MM NOT_NAMED 1935-01-13 15:00:00 TS -20.3354 65.1969 main 771 771 _____P___PP___ -1 -20.0367 65.7273 99 -21.4074 64.8403 TC 35 -19.5620 65.0231 2 17 185
1935012S15068 1935 1 SI MM NOT_NAMED 1935-01-13 18:00:00 TS -21.1174 65.1704 main 774 774 _____P___OO___ -1 -20.8478 65.6435 99 -22.3000 64.9000 TC 35 -20.5000 64.9000 2 15 180
1935012S15068 1935 1 SI MM NOT_NAMED 1935-01-13 21:00:00 TS -21.8620 65.2110 main 787 787 _____P___PP___ -1 -21.6654 65.5728 99 -23.1602 65.1065 TC 35 -21.4096 64.9015 2 15 175
1935012S15068 1935 1 SI MM NOT_NAMED 1935-01-14 00:00:00 TS -22.5855 65.3134 main 817 817 _____P___OP___ -1 -22.4537 65.5212 99 -24.0000 65.4000 TC 35 -22.2896 65.0075 2 13 173
1935012S15068 1935 1 SI MM NOT_NAMED 1935-01-14 03:00:00 NR -23.1680 65.3915 main 848 848 _____P____P___ -1 -23.1771 65.4948 99 TC -23.1499 65.1850 2 13 173
1935012S15068 1935 1 SI MM NOT_NAMED 1935-01-14 06:00:00 NR -23.8400 65.4800 reunion main 883 883 _____O____O___ -1 -23.8000 65.5000 99 9.90000 -24.0000 65.4000 2 11 173
1935012S15068 1935 1 SI MM NOT_NAMED 1935-01-14 09:00:00 NR -24.2960 65.5412 main 906 906 _____P________ -1 -24.2960 65.5412 99 2 8 171
1935012S15068 1935 1 SI MM NOT_NAMED 1935-01-14 12:00:00 NR -24.6735 65.6158 main 936 936 _____P________ -1 -24.6735 65.6158 99 2 7 166
1935012S15068 1935 1 SI MM NOT_NAMED 1935-01-14 15:00:00 NR -24.9496 65.7192 main 956 956 _____P________ -1 -24.9496 65.7192 99 2 5 156
1935012S15068 1935 1 SI MM NOT_NAMED 1935-01-14 18:00:00 NR -25.1412 65.8465 main 975 975 _____P________ -1 -25.1412 65.8465 99 4 142
1935012S15068 1935 1 SI MM NOT_NAMED 1935-01-14 21:00:00 NR -25.2652 65.9931 main 1004 1004 _____P________ -1 -25.2652 65.9931 99 3 125
1935012S15068 1935 1 SI MM NOT_NAMED 1935-01-15 00:00:00 NR -25.3384 66.1541 main 1021 1021 _____P________ -1 -25.3384 66.1541 99 3 111
1935012S15068 1935 1 SI MM NOT_NAMED 1935-01-15 03:00:00 NR -25.3778 66.3246 main 1036 1036 _____P________ -1 -25.3778 66.3246 99 3 101
1935012S15068 1935 1 SI MM NOT_NAMED 1935-01-15 06:00:00 NR -25.4000 66.5000 reunion main 1053 _____O________ -1 -25.4000 66.5000 99 9.90000 3 98

IBTrACS Databaseについて

本データベースは、米国NOAAが公開する1842年以降の世界の熱帯低気圧のベストトラックデータアーカイブInternational Best Track Archive for Climate Stewardship (IBTrACS)を、ウェブで閲覧しやすい形式に変換したものです。

最終更新日:2021-10-08